sensor_id;sensor_type;location;lat;lon;timestamp;temperature;humidity
34985;DHT22;21190;58.750;17.004;2023-08-30T00:01:55;14.80;99.90
34985;DHT22;21190;58.750;17.004;2023-08-30T00:04:23;14.80;99.90
34985;DHT22;21190;58.750;17.004;2023-08-30T00:06:50;14.70;99.90
34985;DHT22;21190;58.750;17.004;2023-08-30T00:09:17;14.70;99.90
34985;DHT22;21190;58.750;17.004;2023-08-30T00:11:44;14.70;99.90
34985;DHT22;21190;58.750;17.004;2023-08-30T00:14:11;14.80;99.90
34985;DHT22;21190;58.750;17.004;2023-08-30T00:16:38;14.80;99.90
34985;DHT22;21190;58.750;17.004;2023-08-30T00:19:06;14.80;99.90
34985;DHT22;21190;58.750;17.004;2023-08-30T00:21:33;14.80;99.90
34985;DHT22;21190;58.750;17.004;2023-08-30T00:23:59;14.70;99.90
34985;DHT22;21190;58.750;17.004;2023-08-30T00:26:27;14.70;99.90
34985;DHT22;21190;58.750;17.004;2023-08-30T00:28:54;14.70;99.90
34985;DHT22;21190;58.750;17.004;2023-08-30T00:31:21;14.80;99.90
34985;DHT22;21190;58.750;17.004;2023-08-30T00:33:48;14.70;99.90
34985;DHT22;21190;58.750;17.004;2023-08-30T00:36:16;14.70;99.90
34985;DHT22;21190;58.750;17.004;2023-08-30T00:38:45;14.70;99.90
34985;DHT22;21190;58.750;17.004;2023-08-30T00:41:12;14.70;99.90
34985;DHT22;21190;58.750;17.004;2023-08-30T00:43:39;14.70;99.90
34985;DHT22;21190;58.750;17.004;2023-08-30T00:46:06;14.70;99.90
34985;DHT22;21190;58.750;17.004;2023-08-30T00:48:33;14.80;99.90
34985;DHT22;21190;58.750;17.004;2023-08-30T00:51:00;14.80;99.90
34985;DHT22;21190;58.750;17.004;2023-08-30T00:53:27;14.80;99.90
34985;DHT22;21190;58.750;17.004;2023-08-30T00:55:54;14.80;99.90
34985;DHT22;21190;58.750;17.004;2023-08-30T00:58:21;14.80;99.90
34985;DHT22;21190;58.750;17.004;2023-08-30T01:00:48;14.80;99.90
34985;DHT22;21190;58.750;17.004;2023-08-30T01:03:17;14.90;99.90
34985;DHT22;21190;58.750;17.004;2023-08-30T01:05:44;14.90;99.90
34985;DHT22;21190;58.750;17.004;2023-08-30T01:08:11;14.90;99.90
34985;DHT22;21190;58.750;17.004;2023-08-30T01:11:05;14.80;99.90
34985;DHT22;21190;58.750;17.004;2023-08-30T01:13:40;14.80;99.90
34985;DHT22;21190;58.750;17.004;2023-08-30T01:16:09;14.80;99.90
34985;DHT22;21190;58.750;17.004;2023-08-30T01:18:37;14.80;99.90
34985;DHT22;21190;58.750;17.004;2023-08-30T01:21:12;14.70;99.90
34985;DHT22;21190;58.750;17.004;2023-08-30T01:23:54;14.70;99.90
34985;DHT22;21190;58.750;17.004;2023-08-30T01:29:21;14.70;99.90
34985;DHT22;21190;58.750;17.004;2023-08-30T01:31:49;14.70;99.90
34985;DHT22;21190;58.750;17.004;2023-08-30T01:34:16;14.70;99.90
34985;DHT22;21190;58.750;17.004;2023-08-30T01:36:44;14.60;99.90
34985;DHT22;21190;58.750;17.004;2023-08-30T01:39:12;14.60;99.90
34985;DHT22;21190;58.750;17.004;2023-08-30T01:41:40;14.60;99.90
34985;DHT22;21190;58.750;17.004;2023-08-30T01:44:08;14.50;99.90
34985;DHT22;21190;58.750;17.004;2023-08-30T01:46:36;14.50;99.90
34985;DHT22;21190;58.750;17.004;2023-08-30T01:49:04;14.50;99.90
34985;DHT22;21190;58.750;17.004;2023-08-30T01:51:33;14.60;99.90
34985;DHT22;21190;58.750;17.004;2023-08-30T01:54:00;14.60;99.90
34985;DHT22;21190;58.750;17.004;2023-08-30T01:56:27;14.60;99.90
34985;DHT22;21190;58.750;17.004;2023-08-30T01:58:54;14.60;99.90
34985;DHT22;21190;58.750;17.004;2023-08-30T02:01:21;14.50;99.90
34985;DHT22;21190;58.750;17.004;2023-08-30T02:03:48;14.50;99.90
34985;DHT22;21190;58.750;17.004;2023-08-30T02:06:21;14.60;99.90
34985;DHT22;21190;58.750;17.004;2023-08-30T02:09:00;14.60;99.90
34985;DHT22;21190;58.750;17.004;2023-08-30T02:11:32;14.60;99.90
34985;DHT22;21190;58.750;17.004;2023-08-30T02:14:01;14.60;99.90
34985;DHT22;21190;58.750;17.004;2023-08-30T02:16:33;14.60;99.90
34985;DHT22;21190;58.750;17.004;2023-08-30T02:19:01;14.60;99.90
34985;DHT22;21190;58.750;17.004;2023-08-30T02:21:28;14.60;99.90
34985;DHT22;21190;58.750;17.004;2023-08-30T02:23:55;14.60;99.90
34985;DHT22;21190;58.750;17.004;2023-08-30T02:26:22;14.60;99.90
34985;DHT22;21190;58.750;17.004;2023-08-30T02:28:49;14.60;99.90
34985;DHT22;21190;58.750;17.004;2023-08-30T02:31:16;14.60;99.90
34985;DHT22;21190;58.750;17.004;2023-08-30T02:33:43;14.60;99.90
34985;DHT22;21190;58.750;17.004;2023-08-30T02:36:10;14.60;99.90
34985;DHT22;21190;58.750;17.004;2023-08-30T02:38:37;14.70;99.90
34985;DHT22;21190;58.750;17.004;2023-08-30T02:41:05;14.70;99.90
34985;DHT22;21190;58.750;17.004;2023-08-30T02:43:32;14.70;99.90
34985;DHT22;21190;58.750;17.004;2023-08-30T02:45:59;14.70;99.90
34985;DHT22;21190;58.750;17.004;2023-08-30T02:48:28;14.60;99.90
34985;DHT22;21190;58.750;17.004;2023-08-30T02:50:55;14.60;99.90
34985;DHT22;21190;58.750;17.004;2023-08-30T02:53:22;14.60;99.90
34985;DHT22;21190;58.750;17.004;2023-08-30T02:55:49;14.60;99.90
34985;DHT22;21190;58.750;17.004;2023-08-30T02:58:16;14.60;99.90
34985;DHT22;21190;58.750;17.004;2023-08-30T03:00:43;14.60;99.90
34985;DHT22;21190;58.750;17.004;2023-08-30T03:03:10;14.60;99.90
34985;DHT22;21190;58.750;17.004;2023-08-30T03:05:37;14.70;99.90
34985;DHT22;21190;58.750;17.004;2023-08-30T03:08:04;14.70;99.90
34985;DHT22;21190;58.750;17.004;2023-08-30T03:10:31;14.70;99.90
34985;DHT22;21190;58.750;17.004;2023-08-30T03:12:59;14.70;99.90
34985;DHT22;21190;58.750;17.004;2023-08-30T03:15:26;14.70;99.90
34985;DHT22;21190;58.750;17.004;2023-08-30T03:17:53;14.70;99.90
34985;DHT22;21190;58.750;17.004;2023-08-30T03:20:20;14.70;99.90
34985;DHT22;21190;58.750;17.004;2023-08-30T03:22:47;14.60;99.90
34985;DHT22;21190;58.750;17.004;2023-08-30T03:25:14;14.60;99.90
34985;DHT22;21190;58.750;17.004;2023-08-30T03:27:43;14.60;99.90
34985;DHT22;21190;58.750;17.004;2023-08-30T03:30:10;14.60;99.90
34985;DHT22;21190;58.750;17.004;2023-08-30T03:32:37;14.50;99.90
34985;DHT22;21190;58.750;17.004;2023-08-30T03:35:04;14.60;99.90
34985;DHT22;21190;58.750;17.004;2023-08-30T03:37:31;14.60;99.90
34985;DHT22;21190;58.750;17.004;2023-08-30T03:39:58;14.60;99.90
34985;DHT22;21190;58.750;17.004;2023-08-30T03:42:25;14.50;99.90
34985;DHT22;21190;58.750;17.004;2023-08-30T03:44:52;14.50;99.90
34985;DHT22;21190;58.750;17.004;2023-08-30T03:47:19;14.50;99.90
34985;DHT22;21190;58.750;17.004;2023-08-30T03:49:46;14.50;99.90
34985;DHT22;21190;58.750;17.004;2023-08-30T03:52:13;14.50;99.90
34985;DHT22;21190;58.750;17.004;2023-08-30T03:54:40;14.50;99.90
34985;DHT22;21190;58.750;17.004;2023-08-30T03:57:07;14.50;99.90
34985;DHT22;21190;58.750;17.004;2023-08-30T03:59:34;14.50;99.90
34985;DHT22;21190;58.750;17.004;2023-08-30T04:02:01;14.50;99.90
34985;DHT22;21190;58.750;17.004;2023-08-30T04:04:28;14.50;99.90
34985;DHT22;21190;58.750;17.004;2023-08-30T04:06:55;14.50;99.90
34985;DHT22;21190;58.750;17.004;2023-08-30T04:09:22;14.50;99.90
34985;DHT22;21190;58.750;17.004;2023-08-30T04:11:48;14.60;99.90
34985;DHT22;21190;58.750;17.004;2023-08-30T04:14:15;14.60;99.90
34985;DHT22;21190;58.750;17.004;2023-08-30T04:16:42;14.50;99.90
34985;DHT22;21190;58.750;17.004;2023-08-30T04:19:09;14.50;99.90
34985;DHT22;21190;58.750;17.004;2023-08-30T04:21:36;14.60;99.90
34985;DHT22;21190;58.750;17.004;2023-08-30T04:24:03;14.50;99.90
34985;DHT22;21190;58.750;17.004;2023-08-30T04:26:30;14.50;99.90
34985;DHT22;21190;58.750;17.004;2023-08-30T04:28:57;14.50;99.90
34985;DHT22;21190;58.750;17.004;2023-08-30T04:31:24;14.50;99.90
34985;DHT22;21190;58.750;17.004;2023-08-30T04:33:51;14.50;99.90
34985;DHT22;21190;58.750;17.004;2023-08-30T04:36:19;14.50;99.90
34985;DHT22;21190;58.750;17.004;2023-08-30T04:38:46;14.50;99.90
34985;DHT22;21190;58.750;17.004;2023-08-30T04:41:28;14.50;99.90
34985;DHT22;21190;58.750;17.004;2023-08-30T04:43:55;14.50;99.90
34985;DHT22;21190;58.750;17.004;2023-08-30T04:46:22;14.50;99.90
34985;DHT22;21190;58.750;17.004;2023-08-30T04:48:49;14.50;99.90
34985;DHT22;21190;58.750;17.004;2023-08-30T04:51:17;14.50;99.90
34985;DHT22;21190;58.750;17.004;2023-08-30T04:53:44;14.50;99.90
34985;DHT22;21190;58.750;17.004;2023-08-30T04:56:15;14.50;99.90
34985;DHT22;21190;58.750;17.004;2023-08-30T04:58:44;14.50;99.90
34985;DHT22;21190;58.750;17.004;2023-08-30T05:01:11;14.50;99.90
34985;DHT22;21190;58.750;17.004;2023-08-30T05:03:40;14.50;99.90
34985;DHT22;21190;58.750;17.004;2023-08-30T05:06:08;14.50;99.90
34985;DHT22;21190;58.750;17.004;2023-08-30T05:08:35;14.50;99.90
34985;DHT22;21190;58.750;17.004;2023-08-30T05:11:02;14.50;99.90
34985;DHT22;21190;58.750;17.004;2023-08-30T05:13:32;14.50;99.90
34985;DHT22;21190;58.750;17.004;2023-08-30T05:15:59;14.60;99.90
34985;DHT22;21190;58.750;17.004;2023-08-30T05:18:26;14.60;99.90
34985;DHT22;21190;58.750;17.004;2023-08-30T05:20:53;14.50;99.90
34985;DHT22;21190;58.750;17.004;2023-08-30T05:23:20;14.60;99.90
34985;DHT22;21190;58.750;17.004;2023-08-30T05:25:47;14.50;99.90
34985;DHT22;21190;58.750;17.004;2023-08-30T05:28:14;14.50;99.90
34985;DHT22;21190;58.750;17.004;2023-08-30T05:30:42;14.60;99.90
34985;DHT22;21190;58.750;17.004;2023-08-30T05:33:09;14.60;99.90
34985;DHT22;21190;58.750;17.004;2023-08-30T05:35:36;14.70;99.90
34985;DHT22;21190;58.750;17.004;2023-08-30T05:38:03;14.70;99.90
34985;DHT22;21190;58.750;17.004;2023-08-30T05:40:31;14.70;99.90
34985;DHT22;21190;58.750;17.004;2023-08-30T05:42:57;14.80;99.90
34985;DHT22;21190;58.750;17.004;2023-08-30T05:45:24;14.80;99.90
34985;DHT22;21190;58.750;17.004;2023-08-30T05:47:51;14.80;99.90
34985;DHT22;21190;58.750;17.004;2023-08-30T05:50:18;14.80;99.90
34985;DHT22;21190;58.750;17.004;2023-08-30T05:52:45;14.80;99.90
34985;DHT22;21190;58.750;17.004;2023-08-30T05:55:12;14.80;99.90
34985;DHT22;21190;58.750;17.004;2023-08-30T05:57:39;14.80;99.90
34985;DHT22;21190;58.750;17.004;2023-08-30T06:00:07;14.90;99.90
34985;DHT22;21190;58.750;17.004;2023-08-30T06:02:35;14.90;99.90
34985;DHT22;21190;58.750;17.004;2023-08-30T06:05:02;14.90;99.90
34985;DHT22;21190;58.750;17.004;2023-08-30T06:07:29;14.90;99.90
34985;DHT22;21190;58.750;17.004;2023-08-30T06:09:56;14.90;99.90
34985;DHT22;21190;58.750;17.004;2023-08-30T06:12:25;14.90;99.90
34985;DHT22;21190;58.750;17.004;2023-08-30T06:14:52;14.90;99.90
34985;DHT22;21190;58.750;17.004;2023-08-30T06:17:19;14.90;99.90
34985;DHT22;21190;58.750;17.004;2023-08-30T06:19:47;14.90;99.90
34985;DHT22;21190;58.750;17.004;2023-08-30T06:22:14;14.90;99.90
34985;DHT22;21190;58.750;17.004;2023-08-30T06:24:41;14.90;99.90
34985;DHT22;21190;58.750;17.004;2023-08-30T06:27:08;15.00;99.90
34985;DHT22;21190;58.750;17.004;2023-08-30T06:29:35;15.10;99.90
34985;DHT22;21190;58.750;17.004;2023-08-30T06:32:02;15.10;99.90
34985;DHT22;21190;58.750;17.004;2023-08-30T06:34:30;15.20;99.90
34985;DHT22;21190;58.750;17.004;2023-08-30T06:36:57;15.20;99.90
34985;DHT22;21190;58.750;17.004;2023-08-30T06:39:24;15.20;99.90
34985;DHT22;21190;58.750;17.004;2023-08-30T06:41:51;15.30;99.90
34985;DHT22;21190;58.750;17.004;2023-08-30T06:44:18;15.30;99.90
34985;DHT22;21190;58.750;17.004;2023-08-30T06:46:45;15.30;99.90
34985;DHT22;21190;58.750;17.004;2023-08-30T06:49:12;15.40;99.90
34985;DHT22;21190;58.750;17.004;2023-08-30T06:51:39;15.40;99.90
34985;DHT22;21190;58.750;17.004;2023-08-30T06:54:06;15.40;99.90
34985;DHT22;21190;58.750;17.004;2023-08-30T06:56:33;15.50;99.90
34985;DHT22;21190;58.750;17.004;2023-08-30T06:59:00;15.50;99.90
34985;DHT22;21190;58.750;17.004;2023-08-30T07:01:27;15.50;99.90
34985;DHT22;21190;58.750;17.004;2023-08-30T07:03:54;15.60;99.90
34985;DHT22;21190;58.750;17.004;2023-08-30T07:06:21;15.50;99.90
34985;DHT22;21190;58.750;17.004;2023-08-30T07:08:48;15.60;99.90
34985;DHT22;21190;58.750;17.004;2023-08-30T07:11:15;15.70;99.90
34985;DHT22;21190;58.750;17.004;2023-08-30T07:13:59;15.70;99.90
34985;DHT22;21190;58.750;17.004;2023-08-30T07:16:26;15.70;99.90
34985;DHT22;21190;58.750;17.004;2023-08-30T07:18:53;15.70;99.90
34985;DHT22;21190;58.750;17.004;2023-08-30T07:21:20;15.80;99.90
34985;DHT22;21190;58.750;17.004;2023-08-30T07:23:47;15.80;99.90
34985;DHT22;21190;58.750;17.004;2023-08-30T07:26:13;15.80;99.90
34985;DHT22;21190;58.750;17.004;2023-08-30T07:28:41;15.90;99.90
34985;DHT22;21190;58.750;17.004;2023-08-30T07:31:08;16.00;99.90
34985;DHT22;21190;58.750;17.004;2023-08-30T07:33:35;16.10;99.90
34985;DHT22;21190;58.750;17.004;2023-08-30T07:36:02;16.10;99.90
34985;DHT22;21190;58.750;17.004;2023-08-30T07:38:29;16.10;99.90
34985;DHT22;21190;58.750;17.004;2023-08-30T07:40:56;16.30;99.90
34985;DHT22;21190;58.750;17.004;2023-08-30T07:43:23;16.40;99.90
34985;DHT22;21190;58.750;17.004;2023-08-30T07:45:50;16.40;99.90
34985;DHT22;21190;58.750;17.004;2023-08-30T07:48:17;16.40;99.90
34985;DHT22;21190;58.750;17.004;2023-08-30T07:50:44;16.50;99.90
34985;DHT22;21190;58.750;17.004;2023-08-30T07:53:12;16.50;99.90
34985;DHT22;21190;58.750;17.004;2023-08-30T07:55:39;16.50;99.90
34985;DHT22;21190;58.750;17.004;2023-08-30T07:58:06;16.50;99.90
34985;DHT22;21190;58.750;17.004;2023-08-30T08:00:36;16.70;99.90
34985;DHT22;21190;58.750;17.004;2023-08-30T08:03:03;16.70;99.90
34985;DHT22;21190;58.750;17.004;2023-08-30T08:05:30;16.80;99.90
34985;DHT22;21190;58.750;17.004;2023-08-30T08:08:00;16.70;99.90
34985;DHT22;21190;58.750;17.004;2023-08-30T08:10:32;16.80;99.90
34985;DHT22;21190;58.750;17.004;2023-08-30T08:13:00;16.90;99.90
34985;DHT22;21190;58.750;17.004;2023-08-30T08:15:28;16.90;99.90
34985;DHT22;21190;58.750;17.004;2023-08-30T08:17:57;17.00;99.90
34985;DHT22;21190;58.750;17.004;2023-08-30T08:20:24;17.00;99.90
34985;DHT22;21190;58.750;17.004;2023-08-30T08:22:51;17.00;99.90
34985;DHT22;21190;58.750;17.004;2023-08-30T08:25:18;17.00;99.90
34985;DHT22;21190;58.750;17.004;2023-08-30T08:27:47;17.00;99.90
34985;DHT22;21190;58.750;17.004;2023-08-30T08:30:14;17.00;99.90
34985;DHT22;21190;58.750;17.004;2023-08-30T08:32:41;17.00;99.90
34985;DHT22;21190;58.750;17.004;2023-08-30T08:35:08;17.00;99.90
34985;DHT22;21190;58.750;17.004;2023-08-30T08:37:35;17.10;99.90
34985;DHT22;21190;58.750;17.004;2023-08-30T08:40:04;17.10;99.90
34985;DHT22;21190;58.750;17.004;2023-08-30T08:42:35;17.10;99.90
34985;DHT22;21190;58.750;17.004;2023-08-30T08:45:03;17.10;99.90
34985;DHT22;21190;58.750;17.004;2023-08-30T08:47:31;17.10;99.90
34985;DHT22;21190;58.750;17.004;2023-08-30T08:49:58;17.20;99.90
34985;DHT22;21190;58.750;17.004;2023-08-30T08:52:27;17.20;99.90
34985;DHT22;21190;58.750;17.004;2023-08-30T08:55:02;17.20;99.90
34985;DHT22;21190;58.750;17.004;2023-08-30T08:57:29;17.30;99.90
34985;DHT22;21190;58.750;17.004;2023-08-30T08:59:59;17.30;99.90
34985;DHT22;21190;58.750;17.004;2023-08-30T09:02:26;17.30;99.90
34985;DHT22;21190;58.750;17.004;2023-08-30T09:04:56;17.30;99.90
34985;DHT22;21190;58.750;17.004;2023-08-30T09:07:27;17.30;99.90
34985;DHT22;21190;58.750;17.004;2023-08-30T09:09:53;17.30;99.90
34985;DHT22;21190;58.750;17.004;2023-08-30T09:12:21;17.30;99.90
34985;DHT22;21190;58.750;17.004;2023-08-30T09:14:56;17.50;99.90
34985;DHT22;21190;58.750;17.004;2023-08-30T09:17:23;17.60;99.90
34985;DHT22;21190;58.750;17.004;2023-08-30T09:19:50;17.80;99.90
34985;DHT22;21190;58.750;17.004;2023-08-30T09:22:17;17.80;99.90
34985;DHT22;21190;58.750;17.004;2023-08-30T09:24:44;17.80;99.90
34985;DHT22;21190;58.750;17.004;2023-08-30T09:27:11;17.80;99.90
34985;DHT22;21190;58.750;17.004;2023-08-30T09:29:38;17.80;99.90
34985;DHT22;21190;58.750;17.004;2023-08-30T09:32:08;17.70;99.90
34985;DHT22;21190;58.750;17.004;2023-08-30T09:34:35;18.10;99.90
34985;DHT22;21190;58.750;17.004;2023-08-30T09:37:02;18.20;99.90
34985;DHT22;21190;58.750;17.004;2023-08-30T09:39:33;18.40;99.90
34985;DHT22;21190;58.750;17.004;2023-08-30T09:42:00;18.40;99.90
34985;DHT22;21190;58.750;17.004;2023-08-30T09:44:29;18.50;99.90
34985;DHT22;21190;58.750;17.004;2023-08-30T09:46:57;18.50;99.90
34985;DHT22;21190;58.750;17.004;2023-08-30T09:49:25;18.50;99.90
34985;DHT22;21190;58.750;17.004;2023-08-30T09:51:53;18.40;99.90
34985;DHT22;21190;58.750;17.004;2023-08-30T09:54:25;18.40;99.90
34985;DHT22;21190;58.750;17.004;2023-08-30T09:56:59;18.30;99.90
34985;DHT22;21190;58.750;17.004;2023-08-30T09:59:27;18.40;99.90
34985;DHT22;21190;58.750;17.004;2023-08-30T10:01:55;18.40;99.90
34985;DHT22;21190;58.750;17.004;2023-08-30T10:04:23;18.40;99.90
34985;DHT22;21190;58.750;17.004;2023-08-30T10:06:51;18.50;99.90
34985;DHT22;21190;58.750;17.004;2023-08-30T10:09:20;18.60;99.90
34985;DHT22;21190;58.750;17.004;2023-08-30T10:11:47;18.60;99.90
34985;DHT22;21190;58.750;17.004;2023-08-30T10:14:15;18.60;99.90
34985;DHT22;21190;58.750;17.004;2023-08-30T10:16:44;18.70;99.90
34985;DHT22;21190;58.750;17.004;2023-08-30T10:19:15;18.80;99.90
34985;DHT22;21190;58.750;17.004;2023-08-30T10:21:48;18.80;99.90
34985;DHT22;21190;58.750;17.004;2023-08-30T10:24:19;18.70;99.90
34985;DHT22;21190;58.750;17.004;2023-08-30T10:27:01;18.80;99.90
34985;DHT22;21190;58.750;17.004;2023-08-30T10:29:32;18.80;99.90
34985;DHT22;21190;58.750;17.004;2023-08-30T10:32:06;18.70;99.90
34985;DHT22;21190;58.750;17.004;2023-08-30T10:34:34;18.70;99.90
34985;DHT22;21190;58.750;17.004;2023-08-30T10:37:05;18.80;99.90
34985;DHT22;21190;58.750;17.004;2023-08-30T10:39:40;18.90;99.90
34985;DHT22;21190;58.750;17.004;2023-08-30T10:42:12;19.00;99.90
34985;DHT22;21190;58.750;17.004;2023-08-30T10:47:26;19.00;99.90
34985;DHT22;21190;58.750;17.004;2023-08-30T10:49:59;19.00;99.90
34985;DHT22;21190;58.750;17.004;2023-08-30T10:52:28;19.00;99.90
34985;DHT22;21190;58.750;17.004;2023-08-30T10:55:11;19.20;99.90
34985;DHT22;21190;58.750;17.004;2023-08-30T10:57:42;19.10;99.90
34985;DHT22;21190;58.750;17.004;2023-08-30T11:00:22;19.20;99.90
34985;DHT22;21190;58.750;17.004;2023-08-30T11:02:51;19.20;99.90
34985;DHT22;21190;58.750;17.004;2023-08-30T11:05:20;19.10;99.90
34985;DHT22;21190;58.750;17.004;2023-08-30T11:07:48;19.10;99.90
34985;DHT22;21190;58.750;17.004;2023-08-30T11:10:18;19.20;99.90
34985;DHT22;21190;58.750;17.004;2023-08-30T11:12:46;19.20;99.90
34985;DHT22;21190;58.750;17.004;2023-08-30T11:15:16;19.30;99.90
34985;DHT22;21190;58.750;17.004;2023-08-30T11:17:43;19.20;99.90
34985;DHT22;21190;58.750;17.004;2023-08-30T11:20:15;19.20;99.90
34985;DHT22;21190;58.750;17.004;2023-08-30T11:22:48;19.20;99.90
34985;DHT22;21190;58.750;17.004;2023-08-30T11:25:16;19.30;99.90
34985;DHT22;21190;58.750;17.004;2023-08-30T11:27:44;19.40;99.90
34985;DHT22;21190;58.750;17.004;2023-08-30T11:30:11;19.40;99.90
34985;DHT22;21190;58.750;17.004;2023-08-30T11:32:40;19.40;99.90
34985;DHT22;21190;58.750;17.004;2023-08-30T11:35:08;19.40;99.90
34985;DHT22;21190;58.750;17.004;2023-08-30T11:37:35;19.30;99.90
34985;DHT22;21190;58.750;17.004;2023-08-30T11:40:03;19.30;99.90
34985;DHT22;21190;58.750;17.004;2023-08-30T11:42:33;19.30;99.90
34985;DHT22;21190;58.750;17.004;2023-08-30T11:45:00;19.30;99.90
34985;DHT22;21190;58.750;17.004;2023-08-30T11:47:27;19.30;99.90
34985;DHT22;21190;58.750;17.004;2023-08-30T11:49:56;19.30;99.90
34985;DHT22;21190;58.750;17.004;2023-08-30T11:52:24;19.40;99.90
34985;DHT22;21190;58.750;17.004;2023-08-30T11:54:51;19.40;99.90
34985;DHT22;21190;58.750;17.004;2023-08-30T11:57:20;19.50;99.90
34985;DHT22;21190;58.750;17.004;2023-08-30T11:59:48;19.60;99.90
34985;DHT22;21190;58.750;17.004;2023-08-30T12:02:17;19.60;99.90
34985;DHT22;21190;58.750;17.004;2023-08-30T12:04:45;19.70;99.90
34985;DHT22;21190;58.750;17.004;2023-08-30T12:07:23;19.80;99.90
34985;DHT22;21190;58.750;17.004;2023-08-30T12:09:50;19.90;99.90
34985;DHT22;21190;58.750;17.004;2023-08-30T12:12:17;19.80;99.90
34985;DHT22;21190;58.750;17.004;2023-08-30T12:14:44;20.00;99.90
34985;DHT22;21190;58.750;17.004;2023-08-30T12:17:11;20.00;99.90
34985;DHT22;21190;58.750;17.004;2023-08-30T12:19:39;20.00;99.90
34985;DHT22;21190;58.750;17.004;2023-08-30T12:22:09;19.90;99.90
34985;DHT22;21190;58.750;17.004;2023-08-30T12:24:42;19.80;99.90
34985;DHT22;21190;58.750;17.004;2023-08-30T12:27:10;19.80;99.90
34985;DHT22;21190;58.750;17.004;2023-08-30T12:29:37;19.80;99.90
34985;DHT22;21190;58.750;17.004;2023-08-30T12:32:05;19.80;99.90
34985;DHT22;21190;58.750;17.004;2023-08-30T12:34:32;19.80;99.90
34985;DHT22;21190;58.750;17.004;2023-08-30T12:36:59;19.80;99.90
34985;DHT22;21190;58.750;17.004;2023-08-30T12:39:31;19.80;99.90
34985;DHT22;21190;58.750;17.004;2023-08-30T12:41:58;20.00;99.90
34985;DHT22;21190;58.750;17.004;2023-08-30T12:44:25;20.00;99.90
34985;DHT22;21190;58.750;17.004;2023-08-30T12:46:52;20.00;99.90
34985;DHT22;21190;58.750;17.004;2023-08-30T12:49:19;20.00;99.90
34985;DHT22;21190;58.750;17.004;2023-08-30T12:51:47;19.90;99.90
34985;DHT22;21190;58.750;17.004;2023-08-30T12:54:14;19.90;99.90
34985;DHT22;21190;58.750;17.004;2023-08-30T12:56:41;19.90;99.90
34985;DHT22;21190;58.750;17.004;2023-08-30T12:59:08;19.90;99.90
34985;DHT22;21190;58.750;17.004;2023-08-30T13:01:35;19.90;99.90
34985;DHT22;21190;58.750;17.004;2023-08-30T13:04:06;19.90;99.90
34985;DHT22;21190;58.750;17.004;2023-08-30T13:06:34;20.10;99.90
34985;DHT22;21190;58.750;17.004;2023-08-30T13:09:01;20.10;99.90
34985;DHT22;21190;58.750;17.004;2023-08-30T13:11:29;20.10;99.90
34985;DHT22;21190;58.750;17.004;2023-08-30T13:13:59;20.10;99.90
34985;DHT22;21190;58.750;17.004;2023-08-30T13:16:26;20.20;99.90
34985;DHT22;21190;58.750;17.004;2023-08-30T13:18:53;20.20;99.90
34985;DHT22;21190;58.750;17.004;2023-08-30T13:21:20;20.20;99.90
34985;DHT22;21190;58.750;17.004;2023-08-30T13:23:53;20.20;99.90
34985;DHT22;21190;58.750;17.004;2023-08-30T13:26:20;20.20;99.90
34985;DHT22;21190;58.750;17.004;2023-08-30T13:28:47;20.20;99.90
34985;DHT22;21190;58.750;17.004;2023-08-30T13:31:14;20.20;99.90
34985;DHT22;21190;58.750;17.004;2023-08-30T13:33:40;20.20;99.90
34985;DHT22;21190;58.750;17.004;2023-08-30T13:36:07;20.20;99.90
34985;DHT22;21190;58.750;17.004;2023-08-30T13:38:34;20.20;99.90
34985;DHT22;21190;58.750;17.004;2023-08-30T13:41:01;20.20;99.90
34985;DHT22;21190;58.750;17.004;2023-08-30T13:43:30;20.20;99.90
34985;DHT22;21190;58.750;17.004;2023-08-30T13:45:59;20.20;99.90
34985;DHT22;21190;58.750;17.004;2023-08-30T13:48:26;20.20;99.90
34985;DHT22;21190;58.750;17.004;2023-08-30T13:50:53;20.20;99.90
34985;DHT22;21190;58.750;17.004;2023-08-30T13:53:20;20.20;99.90
34985;DHT22;21190;58.750;17.004;2023-08-30T13:55:47;20.30;99.90
34985;DHT22;21190;58.750;17.004;2023-08-30T13:58:17;20.30;99.90
34985;DHT22;21190;58.750;17.004;2023-08-30T14:00:44;20.50;99.90
34985;DHT22;21190;58.750;17.004;2023-08-30T14:03:12;20.60;99.90
34985;DHT22;21190;58.750;17.004;2023-08-30T14:05:39;20.70;99.90
34985;DHT22;21190;58.750;17.004;2023-08-30T14:08:09;20.80;99.90
34985;DHT22;21190;58.750;17.004;2023-08-30T14:10:36;20.70;99.90
34985;DHT22;21190;58.750;17.004;2023-08-30T14:13:03;20.50;99.90
34985;DHT22;21190;58.750;17.004;2023-08-30T14:15:31;20.50;99.90
34985;DHT22;21190;58.750;17.004;2023-08-30T14:17:59;20.50;99.90
34985;DHT22;21190;58.750;17.004;2023-08-30T14:20:27;20.60;99.90
34985;DHT22;21190;58.750;17.004;2023-08-30T14:22:54;20.50;99.90
34985;DHT22;21190;58.750;17.004;2023-08-30T14:25:21;20.50;99.90
34985;DHT22;21190;58.750;17.004;2023-08-30T14:27:48;20.40;99.90
34985;DHT22;21190;58.750;17.004;2023-08-30T14:30:16;20.40;99.90
34985;DHT22;21190;58.750;17.004;2023-08-30T14:32:43;20.30;99.90
34985;DHT22;21190;58.750;17.004;2023-08-30T14:35:10;20.30;99.90
34985;DHT22;21190;58.750;17.004;2023-08-30T14:37:38;20.30;99.90
34985;DHT22;21190;58.750;17.004;2023-08-30T14:40:07;20.30;99.90
34985;DHT22;21190;58.750;17.004;2023-08-30T14:42:34;20.30;99.90
34985;DHT22;21190;58.750;17.004;2023-08-30T14:45:01;20.40;99.90
34985;DHT22;21190;58.750;17.004;2023-08-30T14:47:30;20.30;99.90
34985;DHT22;21190;58.750;17.004;2023-08-30T14:49:57;20.40;99.90
34985;DHT22;21190;58.750;17.004;2023-08-30T14:52:24;20.30;99.90
34985;DHT22;21190;58.750;17.004;2023-08-30T14:54:51;20.20;99.90
34985;DHT22;21190;58.750;17.004;2023-08-30T14:57:18;20.20;99.90
34985;DHT22;21190;58.750;17.004;2023-08-30T14:59:46;20.30;99.90
34985;DHT22;21190;58.750;17.004;2023-08-30T15:02:14;20.40;99.90
34985;DHT22;21190;58.750;17.004;2023-08-30T15:04:41;20.40;99.90
34985;DHT22;21190;58.750;17.004;2023-08-30T15:07:08;20.30;99.90
34985;DHT22;21190;58.750;17.004;2023-08-30T15:09:35;20.40;99.90
34985;DHT22;21190;58.750;17.004;2023-08-30T15:12:02;20.40;99.90
34985;DHT22;21190;58.750;17.004;2023-08-30T15:14:32;20.50;99.90
34985;DHT22;21190;58.750;17.004;2023-08-30T15:16:59;20.60;99.90
34985;DHT22;21190;58.750;17.004;2023-08-30T15:19:26;20.60;99.90
34985;DHT22;21190;58.750;17.004;2023-08-30T15:21:53;20.60;99.90
34985;DHT22;21190;58.750;17.004;2023-08-30T15:24:20;20.50;99.90
34985;DHT22;21190;58.750;17.004;2023-08-30T15:26:47;20.50;99.90